sensor_id;sensor_type;location;lat;lon;timestamp;P1;durP1;ratioP1;P2;durP2;ratioP2
25023;SDS011;13033;50.936;5.334;2022-09-20T00:00:05;8.65;;;3.40;;
25023;SDS011;13033;50.936;5.334;2022-09-20T00:02:31;7.90;;;2.78;;
25023;SDS011;13033;50.936;5.334;2022-09-20T00:04:57;7.43;;;2.85;;
25023;SDS011;13033;50.936;5.334;2022-09-20T00:07:22;10.05;;;3.00;;
25023;SDS011;13033;50.936;5.334;2022-09-20T00:09:48;8.65;;;2.92;;
25023;SDS011;13033;50.936;5.334;2022-09-20T00:12:14;12.45;;;3.10;;
25023;SDS011;13033;50.936;5.334;2022-09-20T00:14:40;10.45;;;3.70;;
25023;SDS011;13033;50.936;5.334;2022-09-20T00:17:06;7.15;;;2.90;;
25023;SDS011;13033;50.936;5.334;2022-09-20T00:19:31;9.52;;;3.28;;
25023;SDS011;13033;50.936;5.334;2022-09-20T00:21:57;8.82;;;3.40;;
25023;SDS011;13033;50.936;5.334;2022-09-20T00:24:23;9.82;;;3.40;;
25023;SDS011;13033;50.936;5.334;2022-09-20T00:26:49;8.32;;;3.50;;
25023;SDS011;13033;50.936;5.334;2022-09-20T00:29:15;9.27;;;3.33;;
25023;SDS011;13033;50.936;5.334;2022-09-20T00:31:41;8.95;;;3.38;;
25023;SDS011;13033;50.936;5.334;2022-09-20T00:34:07;9.48;;;3.70;;
25023;SDS011;13033;50.936;5.334;2022-09-20T00:36:53;9.07;;;3.17;;
25023;SDS011;13033;50.936;5.334;2022-09-20T00:39:19;10.25;;;3.38;;
25023;SDS011;13033;50.936;5.334;2022-09-20T00:41:44;8.73;;;3.40;;
25023;SDS011;13033;50.936;5.334;2022-09-20T00:47:04;5.35;;;2.90;;
25023;SDS011;13033;50.936;5.334;2022-09-20T00:49:35;9.00;;;3.15;;
25023;SDS011;13033;50.936;5.334;2022-09-20T00:52:02;6.43;;;2.97;;
25023;SDS011;13033;50.936;5.334;2022-09-20T00:54:28;10.13;;;3.45;;
25023;SDS011;13033;50.936;5.334;2022-09-20T00:56:55;6.63;;;3.05;;
25023;SDS011;13033;50.936;5.334;2022-09-20T00:59:22;8.40;;;3.05;;
25023;SDS011;13033;50.936;5.334;2022-09-20T01:04:24;8.82;;;3.10;;
25023;SDS011;13033;50.936;5.334;2022-09-20T01:06:52;11.07;;;2.72;;
25023;SDS011;13033;50.936;5.334;2022-09-20T01:09:20;8.48;;;3.00;;
25023;SDS011;13033;50.936;5.334;2022-09-20T01:11:46;11.52;;;3.22;;
25023;SDS011;13033;50.936;5.334;2022-09-20T01:14:14;8.45;;;2.78;;
25023;SDS011;13033;50.936;5.334;2022-09-20T01:16:43;11.95;;;3.53;;
25023;SDS011;13033;50.936;5.334;2022-09-20T01:19:13;14.00;;;3.58;;
25023;SDS011;13033;50.936;5.334;2022-09-20T01:22:03;6.75;;;2.47;;
25023;SDS011;13033;50.936;5.334;2022-09-20T01:24:41;6.18;;;3.13;;
25023;SDS011;13033;50.936;5.334;2022-09-20T01:30:11;7.53;;;3.17;;
25023;SDS011;13033;50.936;5.334;2022-09-20T01:32:50;8.10;;;3.80;;
25023;SDS011;13033;50.936;5.334;2022-09-20T01:35:20;6.50;;;3.40;;
25023;SDS011;13033;50.936;5.334;2022-09-20T01:46:28;7.85;;;3.78;;
25023;SDS011;13033;50.936;5.334;2022-09-20T01:51:43;10.60;;;3.90;;
25023;SDS011;13033;50.936;5.334;2022-09-20T02:05:23;9.43;;;3.80;;
25023;SDS011;13033;50.936;5.334;2022-09-20T02:18:42;11.30;;;3.63;;
25023;SDS011;13033;50.936;5.334;2022-09-20T02:24:23;7.43;;;3.50;;
25023;SDS011;13033;50.936;5.334;2022-09-20T02:27:05;8.35;;;3.95;;
25023;SDS011;13033;50.936;5.334;2022-09-20T02:35:18;7.28;;;3.25;;
25023;SDS011;13033;50.936;5.334;2022-09-20T02:37:54;8.20;;;3.10;;
25023;SDS011;13033;50.936;5.334;2022-09-20T02:46:05;10.77;;;3.25;;
25023;SDS011;13033;50.936;5.334;2022-09-20T02:48:41;10.07;;;2.88;;
25023;SDS011;13033;50.936;5.334;2022-09-20T02:51:28;13.43;;;3.30;;
25023;SDS011;13033;50.936;5.334;2022-09-20T02:54:16;7.95;;;2.75;;
25023;SDS011;13033;50.936;5.334;2022-09-20T02:59:57;13.10;;;3.00;;
25023;SDS011;13033;50.936;5.334;2022-09-20T03:02:50;10.90;;;3.08;;
25023;SDS011;13033;50.936;5.334;2022-09-20T03:05:43;10.73;;;2.63;;
25023;SDS011;13033;50.936;5.334;2022-09-20T03:27:40;7.25;;;2.88;;
25023;SDS011;13033;50.936;5.334;2022-09-20T03:33:22;11.50;;;2.60;;
25023;SDS011;13033;50.936;5.334;2022-09-20T03:36:05;13.98;;;3.20;;
25023;SDS011;13033;50.936;5.334;2022-09-20T03:47:20;9.23;;;2.72;;
25023;SDS011;13033;50.936;5.334;2022-09-20T04:20:16;10.05;;;3.40;;
25023;SDS011;13033;50.936;5.334;2022-09-20T04:22:57;10.88;;;3.72;;
25023;SDS011;13033;50.936;5.334;2022-09-20T04:25:34;8.80;;;3.33;;
25023;SDS011;13033;50.936;5.334;2022-09-20T04:28:10;7.95;;;3.28;;
25023;SDS011;13033;50.936;5.334;2022-09-20T04:30:40;9.57;;;3.45;;
25023;SDS011;13033;50.936;5.334;2022-09-20T04:33:17;9.45;;;4.30;;
25023;SDS011;13033;50.936;5.334;2022-09-20T04:38:32;8.98;;;3.92;;
25023;SDS011;13033;50.936;5.334;2022-09-20T04:52:12;12.70;;;4.63;;
25023;SDS011;13033;50.936;5.334;2022-09-20T05:00:14;12.20;;;4.30;;
25023;SDS011;13033;50.936;5.334;2022-09-20T05:03:01;12.20;;;5.13;;
25023;SDS011;13033;50.936;5.334;2022-09-20T05:25:10;15.60;;;5.30;;
25023;SDS011;13033;50.936;5.334;2022-09-20T05:35:35;9.60;;;4.47;;
25023;SDS011;13033;50.936;5.334;2022-09-20T05:38:29;15.80;;;5.40;;
25023;SDS011;13033;50.936;5.334;2022-09-20T05:57:19;17.13;;;5.90;;
25023;SDS011;13033;50.936;5.334;2022-09-20T06:00:22;10.00;;;5.35;;
25023;SDS011;13033;50.936;5.334;2022-09-20T06:02:52;11.45;;;5.53;;
25023;SDS011;13033;50.936;5.334;2022-09-20T06:08:43;17.60;;;5.50;;
25023;SDS011;13033;50.936;5.334;2022-09-20T06:11:45;14.50;;;4.68;;
25023;SDS011;13033;50.936;5.334;2022-09-20T06:19:43;8.90;;;4.17;;
25023;SDS011;13033;50.936;5.334;2022-09-20T06:25:02;13.38;;;5.00;;
25023;SDS011;13033;50.936;5.334;2022-09-20T06:27:45;11.75;;;4.85;;
25023;SDS011;13033;50.936;5.334;2022-09-20T06:30:29;9.50;;;4.68;;
25023;SDS011;13033;50.936;5.334;2022-09-20T06:33:14;11.52;;;5.32;;
25023;SDS011;13033;50.936;5.334;2022-09-20T06:42:04;9.65;;;5.30;;
25023;SDS011;13033;50.936;5.334;2022-09-20T06:44:30;13.05;;;5.43;;
25023;SDS011;13033;50.936;5.334;2022-09-20T06:46:56;12.45;;;5.72;;
25023;SDS011;13033;50.936;5.334;2022-09-20T06:49:22;12.18;;;5.15;;
25023;SDS011;13033;50.936;5.334;2022-09-20T06:51:53;10.85;;;4.95;;
25023;SDS011;13033;50.936;5.334;2022-09-20T06:54:20;13.30;;;4.53;;
25023;SDS011;13033;50.936;5.334;2022-09-20T06:56:47;10.63;;;5.20;;
25023;SDS011;13033;50.936;5.334;2022-09-20T06:59:15;14.35;;;4.97;;
25023;SDS011;13033;50.936;5.334;2022-09-20T07:01:41;13.40;;;5.18;;
25023;SDS011;13033;50.936;5.334;2022-09-20T07:04:07;11.38;;;4.55;;
25023;SDS011;13033;50.936;5.334;2022-09-20T07:06:35;12.38;;;4.70;;
25023;SDS011;13033;50.936;5.334;2022-09-20T07:09:01;10.25;;;4.60;;
25023;SDS011;13033;50.936;5.334;2022-09-20T07:11:28;13.32;;;4.45;;
25023;SDS011;13033;50.936;5.334;2022-09-20T07:13:58;15.73;;;4.43;;
25023;SDS011;13033;50.936;5.334;2022-09-20T07:16:24;10.50;;;4.57;;
25023;SDS011;13033;50.936;5.334;2022-09-20T07:18:50;13.80;;;5.22;;
25023;SDS011;13033;50.936;5.334;2022-09-20T07:21:16;8.95;;;4.43;;
25023;SDS011;13033;50.936;5.334;2022-09-20T07:23:43;10.00;;;4.60;;
25023;SDS011;13033;50.936;5.334;2022-09-20T07:26:28;8.95;;;3.85;;
25023;SDS011;13033;50.936;5.334;2022-09-20T07:28:54;8.95;;;4.75;;
25023;SDS011;13033;50.936;5.334;2022-09-20T07:31:22;13.38;;;4.72;;
25023;SDS011;13033;50.936;5.334;2022-09-20T07:33:49;9.13;;;4.60;;
25023;SDS011;13033;50.936;5.334;2022-09-20T07:36:15;12.90;;;5.13;;
25023;SDS011;13033;50.936;5.334;2022-09-20T07:38:41;8.95;;;4.22;;
25023;SDS011;13033;50.936;5.334;2022-09-20T07:41:10;9.52;;;4.05;;
25023;SDS011;13033;50.936;5.334;2022-09-20T07:43:36;8.40;;;4.20;;
25023;SDS011;13033;50.936;5.334;2022-09-20T07:46:01;11.18;;;4.72;;
25023;SDS011;13033;50.936;5.334;2022-09-20T07:48:31;10.43;;;4.07;;
25023;SDS011;13033;50.936;5.334;2022-09-20T07:51:04;13.60;;;4.78;;
25023;SDS011;13033;50.936;5.334;2022-09-20T07:53:35;9.43;;;4.22;;
25023;SDS011;13033;50.936;5.334;2022-09-20T07:56:03;12.95;;;4.18;;
25023;SDS011;13033;50.936;5.334;2022-09-20T07:58:34;9.75;;;4.13;;
25023;SDS011;13033;50.936;5.334;2022-09-20T08:01:10;9.85;;;4.20;;
25023;SDS011;13033;50.936;5.334;2022-09-20T08:03:38;11.57;;;4.30;;
25023;SDS011;13033;50.936;5.334;2022-09-20T08:06:05;9.88;;;4.32;;
25023;SDS011;13033;50.936;5.334;2022-09-20T08:08:36;9.30;;;4.60;;
25023;SDS011;13033;50.936;5.334;2022-09-20T08:13:34;9.05;;;4.07;;
25023;SDS011;13033;50.936;5.334;2022-09-20T08:16:04;11.82;;;3.88;;
25023;SDS011;13033;50.936;5.334;2022-09-20T08:18:32;9.40;;;3.75;;
25023;SDS011;13033;50.936;5.334;2022-09-20T08:21:08;11.00;;;3.60;;
25023;SDS011;13033;50.936;5.334;2022-09-20T08:23:35;10.77;;;3.97;;
25023;SDS011;13033;50.936;5.334;2022-09-20T08:26:02;9.15;;;3.53;;
25023;SDS011;13033;50.936;5.334;2022-09-20T08:28:29;6.00;;;3.17;;
25023;SDS011;13033;50.936;5.334;2022-09-20T08:33:31;12.98;;;3.90;;
25023;SDS011;13033;50.936;5.334;2022-09-20T08:35:57;10.48;;;3.70;;
25023;SDS011;13033;50.936;5.334;2022-09-20T08:38:24;6.68;;;3.78;;
25023;SDS011;13033;50.936;5.334;2022-09-20T08:40:58;9.15;;;3.85;;
25023;SDS011;13033;50.936;5.334;2022-09-20T08:43:28;9.82;;;3.50;;
25023;SDS011;13033;50.936;5.334;2022-09-20T08:46:01;11.73;;;3.80;;
25023;SDS011;13033;50.936;5.334;2022-09-20T08:48:29;7.70;;;3.55;;
25023;SDS011;13033;50.936;5.334;2022-09-20T08:50:58;13.85;;;3.58;;
25023;SDS011;13033;50.936;5.334;2022-09-20T08:53:25;11.25;;;3.20;;
25023;SDS011;13033;50.936;5.334;2022-09-20T08:55:53;8.23;;;3.20;;
25023;SDS011;13033;50.936;5.334;2022-09-20T08:58:21;7.30;;;3.05;;
25023;SDS011;13033;50.936;5.334;2022-09-20T09:00:47;11.50;;;4.18;;
25023;SDS011;13033;50.936;5.334;2022-09-20T09:03:14;7.25;;;3.70;;
25023;SDS011;13033;50.936;5.334;2022-09-20T09:05:47;5.97;;;3.70;;
25023;SDS011;13033;50.936;5.334;2022-09-20T09:10:50;4.22;;;2.67;;
25023;SDS011;13033;50.936;5.334;2022-09-20T09:14:06;10.98;;;3.40;;
25023;SDS011;13033;50.936;5.334;2022-09-20T09:16:13;8.95;;;3.50;;
25023;SDS011;13033;50.936;5.334;2022-09-20T09:18:41;10.02;;;3.65;;
25023;SDS011;13033;50.936;5.334;2022-09-20T09:21:08;4.68;;;2.92;;
25023;SDS011;13033;50.936;5.334;2022-09-20T09:23:52;5.88;;;2.25;;
25023;SDS011;13033;50.936;5.334;2022-09-20T09:26:38;6.88;;;2.55;;
25023;SDS011;13033;50.936;5.334;2022-09-20T09:31:41;6.72;;;2.33;;
25023;SDS011;13033;50.936;5.334;2022-09-20T09:34:25;5.47;;;1.90;;
25023;SDS011;13033;50.936;5.334;2022-09-20T09:36:52;7.00;;;1.67;;
25023;SDS011;13033;50.936;5.334;2022-09-20T09:41:51;5.50;;;2.25;;
25023;SDS011;13033;50.936;5.334;2022-09-20T09:44:21;5.15;;;1.30;;
25023;SDS011;13033;50.936;5.334;2022-09-20T09:46:47;7.85;;;1.85;;
25023;SDS011;13033;50.936;5.334;2022-09-20T09:49:27;3.80;;;1.40;;
25023;SDS011;13033;50.936;5.334;2022-09-20T09:51:59;7.75;;;1.55;;
25023;SDS011;13033;50.936;5.334;2022-09-20T09:54:39;5.30;;;1.50;;
25023;SDS011;13033;50.936;5.334;2022-09-20T10:02:41;3.15;;;1.30;;
25023;SDS011;13033;50.936;5.334;2022-09-20T10:05:33;3.67;;;1.20;;
25023;SDS011;13033;50.936;5.334;2022-09-20T10:13:58;5.60;;;1.20;;
25023;SDS011;13033;50.936;5.334;2022-09-20T10:19:39;2.95;;;0.95;;
25023;SDS011;13033;50.936;5.334;2022-09-20T10:22:17;5.15;;;1.30;;
25023;SDS011;13033;50.936;5.334;2022-09-20T10:25:02;4.78;;;1.20;;
25023;SDS011;13033;50.936;5.334;2022-09-20T10:38:17;3.10;;;0.88;;
25023;SDS011;13033;50.936;5.334;2022-09-20T10:49:53;5.45;;;1.23;;
25023;SDS011;13033;50.936;5.334;2022-09-20T10:52:44;5.57;;;1.00;;
25023;SDS011;13033;50.936;5.334;2022-09-20T11:00:38;5.32;;;1.02;;
25023;SDS011;13033;50.936;5.334;2022-09-20T11:05:39;6.68;;;1.10;;
25023;SDS011;13033;50.936;5.334;2022-09-20T11:08:26;9.02;;;1.40;;
25023;SDS011;13033;50.936;5.334;2022-09-20T11:10:57;8.27;;;1.40;;
25023;SDS011;13033;50.936;5.334;2022-09-20T11:13:32;4.13;;;1.00;;
25023;SDS011;13033;50.936;5.334;2022-09-20T11:16:26;7.28;;;1.17;;
25023;SDS011;13033;50.936;5.334;2022-09-20T11:21:55;10.30;;;1.20;;
25023;SDS011;13033;50.936;5.334;2022-09-20T11:24:37;5.35;;;1.30;;
25023;SDS011;13033;50.936;5.334;2022-09-20T11:30:02;4.00;;;1.30;;
25023;SDS011;13033;50.936;5.334;2022-09-20T11:32:45;6.60;;;1.08;;
25023;SDS011;13033;50.936;5.334;2022-09-20T11:35:36;6.22;;;0.82;;
25023;SDS011;13033;50.936;5.334;2022-09-20T11:40:52;5.43;;;1.25;;
25023;SDS011;13033;50.936;5.334;2022-09-20T11:43:22;8.18;;;1.40;;
25023;SDS011;13033;50.936;5.334;2022-09-20T11:45:54;6.45;;;1.20;;
25023;SDS011;13033;50.936;5.334;2022-09-20T11:48:27;7.60;;;1.10;;
25023;SDS011;13033;50.936;5.334;2022-09-20T11:56:50;3.42;;;1.00;;
25023;SDS011;13033;50.936;5.334;2022-09-20T11:59:31;6.80;;;1.02;;
25023;SDS011;13033;50.936;5.334;2022-09-20T12:01:58;2.25;;;0.95;;
25023;SDS011;13033;50.936;5.334;2022-09-20T12:04:29;4.72;;;1.17;;
25023;SDS011;13033;50.936;5.334;2022-09-20T12:07:05;6.43;;;1.15;;
25023;SDS011;13033;50.936;5.334;2022-09-20T12:10:02;5.55;;;1.10;;
25023;SDS011;13033;50.936;5.334;2022-09-20T12:12:44;3.88;;;0.80;;
25023;SDS011;13033;50.936;5.334;2022-09-20T12:28:57;6.38;;;1.20;;
25023;SDS011;13033;50.936;5.334;2022-09-20T12:33:57;5.35;;;1.38;;
25023;SDS011;13033;50.936;5.334;2022-09-20T12:36:29;6.05;;;1.08;;
25023;SDS011;13033;50.936;5.334;2022-09-20T12:41:44;5.20;;;1.45;;
25023;SDS011;13033;50.936;5.334;2022-09-20T12:50:12;4.75;;;1.05;;
25023;SDS011;13033;50.936;5.334;2022-09-20T12:58:36;2.53;;;1.25;;
25023;SDS011;13033;50.936;5.334;2022-09-20T13:03:51;7.80;;;1.30;;
25023;SDS011;13033;50.936;5.334;2022-09-20T13:11:43;7.03;;;1.33;;
25023;SDS011;13033;50.936;5.334;2022-09-20T13:14:11;6.07;;;1.80;;
25023;SDS011;13033;50.936;5.334;2022-09-20T13:19:16;6.68;;;1.30;;
25023;SDS011;13033;50.936;5.334;2022-09-20T13:24:42;8.95;;;1.50;;
25023;SDS011;13033;50.936;5.334;2022-09-20T13:27:18;6.50;;;1.40;;
25023;SDS011;13033;50.936;5.334;2022-09-20T13:29:48;8.73;;;1.90;;
25023;SDS011;13033;50.936;5.334;2022-09-20T13:32:28;7.88;;;1.80;;
25023;SDS011;13033;50.936;5.334;2022-09-20T13:35:05;5.47;;;1.90;;
25023;SDS011;13033;50.936;5.334;2022-09-20T13:37:33;8.18;;;1.70;;
25023;SDS011;13033;50.936;5.334;2022-09-20T13:42:57;5.00;;;1.77;;
25023;SDS011;13033;50.936;5.334;2022-09-20T13:45:25;6.72;;;1.77;;
25023;SDS011;13033;50.936;5.334;2022-09-20T13:47:53;7.80;;;2.03;;
25023;SDS011;13033;50.936;5.334;2022-09-20T13:50:26;8.98;;;1.98;;
25023;SDS011;13033;50.936;5.334;2022-09-20T13:52:59;8.18;;;2.00;;
25023;SDS011;13033;50.936;5.334;2022-09-20T13:57:57;5.97;;;1.90;;
25023;SDS011;13033;50.936;5.334;2022-09-20T14:00:30;6.68;;;1.75;;
25023;SDS011;13033;50.936;5.334;2022-09-20T14:02:56;8.70;;;2.20;;
25023;SDS011;13033;50.936;5.334;2022-09-20T14:05:23;7.78;;;1.90;;
25023;SDS011;13033;50.936;5.334;2022-09-20T14:07:51;8.50;;;1.90;;
25023;SDS011;13033;50.936;5.334;2022-09-20T14:13:13;5.60;;;1.83;;
25023;SDS011;13033;50.936;5.334;2022-09-20T14:15:41;4.78;;;1.73;;
25023;SDS011;13033;50.936;5.334;2022-09-20T14:18:13;11.25;;;2.92;;
25023;SDS011;13033;50.936;5.334;2022-09-20T14:20:42;6.88;;;1.90;;
25023;SDS011;13033;50.936;5.334;2022-09-20T14:23:19;5.68;;;2.03;;
25023;SDS011;13033;50.936;5.334;2022-09-20T14:26:20;11.13;;;2.10;;
25023;SDS011;13033;50.936;5.334;2022-09-20T14:28:46;5.07;;;1.92;;
25023;SDS011;13033;50.936;5.334;2022-09-20T14:31:16;10.68;;;2.03;;
25023;SDS011;13033;50.936;5.334;2022-09-20T14:33:44;7.85;;;2.25;;
25023;SDS011;13033;50.936;5.334;2022-09-20T14:36:16;7.68;;;2.00;;
25023;SDS011;13033;50.936;5.334;2022-09-20T14:38:49;3.88;;;1.42;;
25023;SDS011;13033;50.936;5.334;2022-09-20T14:44:01;5.47;;;1.83;;
25023;SDS011;13033;50.936;5.334;2022-09-20T14:46:31;8.63;;;2.55;;
25023;SDS011;13033;50.936;5.334;2022-09-20T14:51:50;5.50;;;1.75;;
25023;SDS011;13033;50.936;5.334;2022-09-20T14:54:26;5.15;;;1.88;;
25023;SDS011;13033;50.936;5.334;2022-09-20T14:56:55;10.05;;;2.00;;
25023;SDS011;13033;50.936;5.334;2022-09-20T14:59:26;9.90;;;2.30;;
25023;SDS011;13033;50.936;5.334;2022-09-20T15:02:00;6.70;;;1.95;;
25023;SDS011;13033;50.936;5.334;2022-09-20T15:04:34;6.38;;;1.48;;
25023;SDS011;13033;50.936;5.334;2022-09-20T15:07:02;4.53;;;1.98;;
25023;SDS011;13033;50.936;5.334;2022-09-20T15:09:30;6.97;;;1.63;;
25023;SDS011;13033;50.936;5.334;2022-09-20T15:12:00;7.13;;;2.05;;
25023;SDS011;13033;50.936;5.334;2022-09-20T15:14:28;17.47;;;14.50;;
25023;SDS011;13033;50.936;5.334;2022-09-20T15:16:54;6.93;;;2.03;;
25023;SDS011;13033;50.936;5.334;2022-09-20T15:19:21;4.82;;;1.20;;
25023;SDS011;13033;50.936;5.334;2022-09-20T15:21:47;4.40;;;1.42;;
25023;SDS011;13033;50.936;5.334;2022-09-20T15:24:12;13.63;;;1.88;;
25023;SDS011;13033;50.936;5.334;2022-09-20T15:26:38;6.43;;;1.45;;
25023;SDS011;13033;50.936;5.334;2022-09-20T15:29:04;8.23;;;1.88;;
25023;SDS011;13033;50.936;5.334;2022-09-20T15:31:30;6.32;;;1.70;;
25023;SDS011;13033;50.936;5.334;2022-09-20T15:33:55;6.25;;;1.73;;
25023;SDS011;13033;50.936;5.334;2022-09-20T15:36:21;4.82;;;1.58;;
25023;SDS011;13033;50.936;5.334;2022-09-20T15:38:46;9.30;;;2.13;;
25023;SDS011;13033;50.936;5.334;2022-09-20T15:41:12;7.45;;;1.85;;
25023;SDS011;13033;50.936;5.334;2022-09-20T15:43:38;7.18;;;1.85;;
25023;SDS011;13033;50.936;5.334;2022-09-20T15:46:20;7.40;;;2.03;;
25023;SDS011;13033;50.936;5.334;2022-09-20T15:48:47;4.95;;;1.75;;
25023;SDS011;13033;50.936;5.334;2022-09-20T15:51:13;7.93;;;1.90;;
25023;SDS011;13033;50.936;5.334;2022-09-20T15:54:01;4.72;;;1.88;;
25023;SDS011;13033;50.936;5.334;2022-09-20T15:56:34;8.05;;;1.88;;
25023;SDS011;13033;50.936;5.334;2022-09-20T15:59:01;6.22;;;1.92;;
25023;SDS011;13033;50.936;5.334;2022-09-20T16:01:33;5.10;;;1.85;;
25023;SDS011;13033;50.936;5.334;2022-09-20T16:04:08;5.28;;;1.98;;
25023;SDS011;13033;50.936;5.334;2022-09-20T16:06:36;8.20;;;1.83;;
25023;SDS011;13033;50.936;5.334;2022-09-20T16:09:04;6.15;;;2.03;;
25023;SDS011;13033;50.936;5.334;2022-09-20T16:11:30;7.28;;;1.92;;
25023;SDS011;13033;50.936;5.334;2022-09-20T16:13:56;4.78;;;1.88;;
25023;SDS011;13033;50.936;5.334;2022-09-20T16:16:24;6.75;;;1.55;;
25023;SDS011;13033;50.936;5.334;2022-09-20T16:18:50;5.97;;;1.90;;
25023;SDS011;13033;50.936;5.334;2022-09-20T16:21:35;10.60;;;1.95;;
25023;SDS011;13033;50.936;5.334;2022-09-20T16:24:03;4.95;;;1.70;;
25023;SDS011;13033;50.936;5.334;2022-09-20T16:26:30;7.15;;;2.30;;
25023;SDS011;13033;50.936;5.334;2022-09-20T16:28:56;6.72;;;3.20;;
25023;SDS011;13033;50.936;5.334;2022-09-20T16:31:35;7.72;;;2.83;;
25023;SDS011;13033;50.936;5.334;2022-09-20T16:34:18;9.32;;;2.47;;
25023;SDS011;13033;50.936;5.334;2022-09-20T16:39:13;7.00;;;2.17;;
25023;SDS011;13033;50.936;5.334;2022-09-20T16:41:40;6.75;;;2.58;;
25023;SDS011;13033;50.936;5.334;2022-09-20T16:44:06;6.28;;;2.35;;
25023;SDS011;13033;50.936;5.334;2022-09-20T16:46:32;10.73;;;2.67;;
25023;SDS011;13033;50.936;5.334;2022-09-20T16:49:01;6.93;;;2.20;;
25023;SDS011;13033;50.936;5.334;2022-09-20T16:51:29;5.18;;;2.10;;
25023;SDS011;13033;50.936;5.334;2022-09-20T16:53:57;8.45;;;1.60;;
25023;SDS011;13033;50.936;5.334;2022-09-20T16:56:26;5.72;;;1.90;;
25023;SDS011;13033;50.936;5.334;2022-09-20T16:58:57;10.77;;;2.88;;
25023;SDS011;13033;50.936;5.334;2022-09-20T17:01:24;10.13;;;3.00;;
25023;SDS011;13033;50.936;5.334;2022-09-20T17:03:49;6.97;;;3.03;;
25023;SDS011;13033;50.936;5.334;2022-09-20T17:06:15;12.10;;;3.45;;
25023;SDS011;13033;50.936;5.334;2022-09-20T17:08:43;10.95;;;4.13;;
25023;SDS011;13033;50.936;5.334;2022-09-20T17:11:18;8.02;;;2.80;;
25023;SDS011;13033;50.936;5.334;2022-09-20T17:13:46;7.47;;;2.58;;
25023;SDS011;13033;50.936;5.334;2022-09-20T17:16:16;10.90;;;4.03;;
25023;SDS011;13033;50.936;5.334;2022-09-20T17:18:43;11.40;;;4.68;;
25023;SDS011;13033;50.936;5.334;2022-09-20T17:21:10;20.95;;;11.68;;
25023;SDS011;13033;50.936;5.334;2022-09-20T17:23:38;23.92;;;14.27;;
25023;SDS011;13033;50.936;5.334;2022-09-20T17:26:06;6.90;;;2.92;;
25023;SDS011;13033;50.936;5.334;2022-09-20T17:28:36;6.50;;;2.28;;
25023;SDS011;13033;50.936;5.334;2022-09-20T17:31:04;9.88;;;2.58;;
25023;SDS011;13033;50.936;5.334;2022-09-20T17:33:31;7.05;;;2.40;;
25023;SDS011;13033;50.936;5.334;2022-09-20T17:35:58;9.25;;;2.45;;
25023;SDS011;13033;50.936;5.334;2022-09-20T17:38:26;7.53;;;2.10;;
25023;SDS011;13033;50.936;5.334;2022-09-20T17:40:59;9.90;;;2.50;;
25023;SDS011;13033;50.936;5.334;2022-09-20T17:43:33;11.30;;;2.55;;
25023;SDS011;13033;50.936;5.334;2022-09-20T17:46:04;7.32;;;2.45;;
25023;SDS011;13033;50.936;5.334;2022-09-20T17:48:40;8.07;;;2.30;;
25023;SDS011;13033;50.936;5.334;2022-09-20T17:51:08;10.35;;;3.00;;
25023;SDS011;13033;50.936;5.334;2022-09-20T17:53:35;9.65;;;3.25;;
25023;SDS011;13033;50.936;5.334;2022-09-20T17:56:01;11.55;;;3.38;;
25023;SDS011;13033;50.936;5.334;2022-09-20T17:58:28;10.23;;;3.78;;
25023;SDS011;13033;50.936;5.334;2022-09-20T18:00:54;12.25;;;3.75;;
25023;SDS011;13033;50.936;5.334;2022-09-20T18:03:26;8.00;;;3.17;;
25023;SDS011;13033;50.936;5.334;2022-09-20T18:05:52;8.23;;;3.50;;
25023;SDS011;13033;50.936;5.334;2022-09-20T18:08:18;8.20;;;3.08;;
25023;SDS011;13033;50.936;5.334;2022-09-20T18:10:53;7.45;;;2.90;;
25023;SDS011;13033;50.936;5.334;2022-09-20T18:13:20;9.68;;;2.72;;
25023;SDS011;13033;50.936;5.334;2022-09-20T18:15:45;5.50;;;2.63;;
25023;SDS011;13033;50.936;5.334;2022-09-20T18:18:11;7.32;;;2.90;;
25023;SDS011;13033;50.936;5.334;2022-09-20T18:20:37;8.43;;;3.15;;
25023;SDS011;13033;50.936;5.334;2022-09-20T18:23:03;8.63;;;3.08;;
25023;SDS011;13033;50.936;5.334;2022-09-20T18:25:29;16.77;;;3.42;;
25023;SDS011;13033;50.936;5.334;2022-09-20T18:28:14;14.43;;;6.05;;
25023;SDS011;13033;50.936;5.334;2022-09-20T18:30:41;15.63;;;6.57;;
25023;SDS011;13033;50.936;5.334;2022-09-20T18:33:09;12.98;;;5.60;;
25023;SDS011;13033;50.936;5.334;2022-09-20T18:35:35;16.33;;;6.90;;
25023;SDS011;13033;50.936;5.334;2022-09-20T18:38:04;18.27;;;8.80;;
25023;SDS011;13033;50.936;5.334;2022-09-20T18:40:31;16.27;;;6.35;;
25023;SDS011;13033;50.936;5.334;2022-09-20T18:43:00;14.10;;;6.82;;
25023;SDS011;13033;50.936;5.334;2022-09-20T18:45:27;12.25;;;5.78;;
25023;SDS011;13033;50.936;5.334;2022-09-20T18:47:53;11.48;;;5.32;;
25023;SDS011;13033;50.936;5.334;2022-09-20T18:50:23;9.65;;;4.75;;
25023;SDS011;13033;50.936;5.334;2022-09-20T18:52:53;9.95;;;4.70;;
25023;SDS011;13033;50.936;5.334;2022-09-20T18:55:19;8.52;;;4.43;;
25023;SDS011;13033;50.936;5.334;2022-09-20T18:57:46;8.70;;;4.72;;
25023;SDS011;13033;50.936;5.334;2022-09-20T19:00:12;14.88;;;4.60;;
25023;SDS011;13033;50.936;5.334;2022-09-20T19:05:32;7.25;;;4.25;;
25023;SDS011;13033;50.936;5.334;2022-09-20T19:10:58;9.50;;;4.18;;
25023;SDS011;13033;50.936;5.334;2022-09-20T19:24:51;10.98;;;4.38;;
25023;SDS011;13033;50.936;5.334;2022-09-20T19:30:03;7.63;;;4.18;;
25023;SDS011;13033;50.936;5.334;2022-09-20T19:32:29;15.10;;;4.97;;
25023;SDS011;13033;50.936;5.334;2022-09-20T19:34:55;11.90;;;5.22;;
25023;SDS011;13033;50.936;5.334;2022-09-20T19:37:41;12.77;;;6.22;;
25023;SDS011;13033;50.936;5.334;2022-09-20T19:48:34;12.05;;;6.03;;
25023;SDS011;13033;50.936;5.334;2022-09-20T19:51:04;12.30;;;5.70;;
25023;SDS011;13033;50.936;5.334;2022-09-20T19:53:34;12.63;;;6.13;;
25023;SDS011;13033;50.936;5.334;2022-09-20T19:56:02;12.15;;;5.65;;
25023;SDS011;13033;50.936;5.334;2022-09-20T19:58:32;15.05;;;6.47;;
25023;SDS011;13033;50.936;5.334;2022-09-20T20:00:59;12.60;;;5.72;;
25023;SDS011;13033;50.936;5.334;2022-09-20T20:03:25;12.27;;;5.90;;
25023;SDS011;13033;50.936;5.334;2022-09-20T20:05:58;12.52;;;5.65;;
25023;SDS011;13033;50.936;5.334;2022-09-20T20:14:52;11.60;;;5.78;;
25023;SDS011;13033;50.936;5.334;2022-09-20T20:19:55;11.10;;;6.13;;
25023;SDS011;13033;50.936;5.334;2022-09-20T20:28:32;12.77;;;6.65;;
25023;SDS011;13033;50.936;5.334;2022-09-20T20:30:59;13.65;;;6.60;;
25023;SDS011;13033;50.936;5.334;2022-09-20T20:33:28;12.50;;;6.13;;
25023;SDS011;13033;50.936;5.334;2022-09-20T20:35:56;15.15;;;6.40;;
25023;SDS011;13033;50.936;5.334;2022-09-20T20:38:24;14.02;;;5.88;;
25023;SDS011;13033;50.936;5.334;2022-09-20T20:41:03;9.57;;;5.78;;
25023;SDS011;13033;50.936;5.334;2022-09-20T20:43:32;11.85;;;6.68;;
25023;SDS011;13033;50.936;5.334;2022-09-20T20:46:04;12.20;;;6.25;;
25023;SDS011;13033;50.936;5.334;2022-09-20T20:48:31;13.25;;;6.50;;
25023;SDS011;13033;50.936;5.334;2022-09-20T20:51:01;13.73;;;6.70;;
25023;SDS011;13033;50.936;5.334;2022-09-20T20:53:29;11.93;;;5.80;;
25023;SDS011;13033;50.936;5.334;2022-09-20T20:56:00;10.90;;;6.32;;
25023;SDS011;13033;50.936;5.334;2022-09-20T20:58:27;12.43;;;6.10;;
25023;SDS011;13033;50.936;5.334;2022-09-20T21:01:02;13.52;;;7.07;;
25023;SDS011;13033;50.936;5.334;2022-09-20T21:03:29;10.50;;;6.85;;
25023;SDS011;13033;50.936;5.334;2022-09-20T21:05:55;14.05;;;6.95;;
25023;SDS011;13033;50.936;5.334;2022-09-20T21:08:20;12.50;;;6.97;;
25023;SDS011;13033;50.936;5.334;2022-09-20T21:10:46;15.52;;;7.32;;
25023;SDS011;13033;50.936;5.334;2022-09-20T21:13:12;11.85;;;6.78;;
25023;SDS011;13033;50.936;5.334;2022-09-20T21:15:37;20.05;;;7.25;;
25023;SDS011;13033;50.936;5.334;2022-09-20T21:18:03;11.60;;;6.68;;
25023;SDS011;13033;50.936;5.334;2022-09-20T21:20:28;11.82;;;7.07;;